sensor_id;sensor_type;location;lat;lon;timestamp;temperature;humidity
75113;DHT22;63692;47.338;8.520;2023-06-04T06:33:24;17.90;99.90
75113;DHT22;63692;47.338;8.520;2023-06-04T06:35:49;17.70;99.90
75113;DHT22;63692;47.338;8.520;2023-06-04T06:38:16;17.70;99.90
75113;DHT22;63692;47.338;8.520;2023-06-04T06:40:41;17.80;99.90
75113;DHT22;63692;47.338;8.520;2023-06-04T06:43:07;17.90;99.90
75113;DHT22;63692;47.338;8.520;2023-06-04T06:45:32;17.90;99.90
75113;DHT22;63692;47.338;8.520;2023-06-04T06:47:58;17.90;99.90
75113;DHT22;63692;47.338;8.520;2023-06-04T06:50:23;18.00;99.90
75113;DHT22;63692;47.338;8.520;2023-06-04T06:52:49;18.00;99.90
75113;DHT22;63692;47.338;8.520;2023-06-04T06:55:15;18.00;99.90
75113;DHT22;63692;47.338;8.520;2023-06-04T06:57:40;18.00;99.90
75113;DHT22;63692;47.338;8.520;2023-06-04T07:00:07;18.00;99.90
75113;DHT22;63692;47.338;8.520;2023-06-04T07:02:33;18.10;99.90
75113;DHT22;63692;47.338;8.520;2023-06-04T07:04:58;18.00;99.90
75113;DHT22;63692;47.338;8.520;2023-06-04T07:07:24;18.00;99.90
75113;DHT22;63692;47.338;8.520;2023-06-04T07:09:49;18.10;99.90
75113;DHT22;63692;47.338;8.520;2023-06-04T07:12:15;18.10;99.90
75113;DHT22;63692;47.338;8.520;2023-06-04T07:14:42;18.10;99.90
75113;DHT22;63692;47.338;8.520;2023-06-04T07:17:07;18.10;99.90
75113;DHT22;63692;47.338;8.520;2023-06-04T07:19:33;18.10;99.90
75113;DHT22;63692;47.338;8.520;2023-06-04T07:21:58;18.10;99.90
75113;DHT22;63692;47.338;8.520;2023-06-04T07:24:24;18.20;99.90
75113;DHT22;63692;47.338;8.520;2023-06-04T07:26:50;18.20;99.90
75113;DHT22;63692;47.338;8.520;2023-06-04T07:29:16;18.40;99.90
75113;DHT22;63692;47.338;8.520;2023-06-04T07:31:41;18.30;99.90
75113;DHT22;63692;47.338;8.520;2023-06-04T07:34:07;18.40;99.90
75113;DHT22;63692;47.338;8.520;2023-06-04T07:36:33;18.40;99.90
75113;DHT22;63692;47.338;8.520;2023-06-04T07:38:59;18.50;99.90
75113;DHT22;63692;47.338;8.520;2023-06-04T07:41:25;18.60;99.90
75113;DHT22;63692;47.338;8.520;2023-06-04T07:43:51;18.60;99.90
75113;DHT22;63692;47.338;8.520;2023-06-04T07:46:17;18.60;99.90
75113;DHT22;63692;47.338;8.520;2023-06-04T07:48:44;18.70;99.90
75113;DHT22;63692;47.338;8.520;2023-06-04T07:51:10;18.70;99.90
75113;DHT22;63692;47.338;8.520;2023-06-04T07:53:37;18.80;99.90
75113;DHT22;63692;47.338;8.520;2023-06-04T07:56:03;18.90;99.90
75113;DHT22;63692;47.338;8.520;2023-06-04T07:58:29;18.90;99.90
75113;DHT22;63692;47.338;8.520;2023-06-04T08:00:55;19.00;99.90
75113;DHT22;63692;47.338;8.520;2023-06-04T08:03:21;19.10;99.90
75113;DHT22;63692;47.338;8.520;2023-06-04T08:05:47;19.20;99.90
75113;DHT22;63692;47.338;8.520;2023-06-04T08:08:13;19.30;99.90
75113;DHT22;63692;47.338;8.520;2023-06-04T08:10:42;19.30;99.90
75113;DHT22;63692;47.338;8.520;2023-06-04T08:13:08;19.40;99.90
75113;DHT22;63692;47.338;8.520;2023-06-04T08:15:35;19.50;99.90
75113;DHT22;63692;47.338;8.520;2023-06-04T08:18:00;19.50;99.90
75113;DHT22;63692;47.338;8.520;2023-06-04T08:20:26;19.70;99.90
75113;DHT22;63692;47.338;8.520;2023-06-04T08:22:52;19.70;99.90
75113;DHT22;63692;47.338;8.520;2023-06-04T08:25:17;19.80;99.90
75113;DHT22;63692;47.338;8.520;2023-06-04T08:27:43;19.80;99.90
75113;DHT22;63692;47.338;8.520;2023-06-04T08:30:09;19.80;99.90
75113;DHT22;63692;47.338;8.520;2023-06-04T08:32:35;19.90;99.90
75113;DHT22;63692;47.338;8.520;2023-06-04T08:35:01;20.00;99.90
75113;DHT22;63692;47.338;8.520;2023-06-04T08:37:26;20.00;99.90
75113;DHT22;63692;47.338;8.520;2023-06-04T08:39:52;20.10;99.70
75113;DHT22;63692;47.338;8.520;2023-06-04T08:42:38;20.20;99.60
75113;DHT22;63692;47.338;8.520;2023-06-04T08:45:10;20.20;99.50
75113;DHT22;63692;47.338;8.520;2023-06-04T08:47:37;20.20;99.20
75113;DHT22;63692;47.338;8.520;2023-06-04T08:50:04;20.30;99.00
75113;DHT22;63692;47.338;8.520;2023-06-04T08:52:33;20.30;99.10
75113;DHT22;63692;47.338;8.520;2023-06-04T08:54:59;20.30;98.80
75113;DHT22;63692;47.338;8.520;2023-06-04T08:57:25;20.40;99.00
75113;DHT22;63692;47.338;8.520;2023-06-04T08:59:50;20.40;98.70
75113;DHT22;63692;47.338;8.520;2023-06-04T09:02:17;20.50;98.40
75113;DHT22;63692;47.338;8.520;2023-06-04T09:04:44;20.60;98.50
75113;DHT22;63692;47.338;8.520;2023-06-04T09:07:13;20.60;97.80
75113;DHT22;63692;47.338;8.520;2023-06-04T09:09:40;20.70;97.70
75113;DHT22;63692;47.338;8.520;2023-06-04T09:12:11;20.70;97.40
75113;DHT22;63692;47.338;8.520;2023-06-04T09:14:41;20.80;97.60
75113;DHT22;63692;47.338;8.520;2023-06-04T09:17:06;20.90;97.50
75113;DHT22;63692;47.338;8.520;2023-06-04T09:19:32;20.90;97.70
75113;DHT22;63692;47.338;8.520;2023-06-04T09:21:59;20.90;97.50
75113;DHT22;63692;47.338;8.520;2023-06-04T09:24:41;21.00;96.80
75113;DHT22;63692;47.338;8.520;2023-06-04T09:27:14;21.00;96.70
75113;DHT22;63692;47.338;8.520;2023-06-04T09:29:40;21.10;96.50
75113;DHT22;63692;47.338;8.520;2023-06-04T09:32:13;21.00;96.20
75113;DHT22;63692;47.338;8.520;2023-06-04T09:34:39;21.00;96.50
75113;DHT22;63692;47.338;8.520;2023-06-04T09:37:17;21.00;96.70
75113;DHT22;63692;47.338;8.520;2023-06-04T09:39:43;21.00;96.80
75113;DHT22;63692;47.338;8.520;2023-06-04T09:42:09;21.00;96.90
75113;DHT22;63692;47.338;8.520;2023-06-04T09:44:45;21.00;96.70
75113;DHT22;63692;47.338;8.520;2023-06-04T09:47:14;21.10;96.60
75113;DHT22;63692;47.338;8.520;2023-06-04T09:49:43;21.10;96.60
75113;DHT22;63692;47.338;8.520;2023-06-04T09:52:09;21.20;96.60
75113;DHT22;63692;47.338;8.520;2023-06-04T09:54:37;21.20;96.40
75113;DHT22;63692;47.338;8.520;2023-06-04T09:57:13;21.30;96.10
75113;DHT22;63692;47.338;8.520;2023-06-04T09:59:43;21.30;96.20
75113;DHT22;63692;47.338;8.520;2023-06-04T10:02:09;21.30;96.30
75113;DHT22;63692;47.338;8.520;2023-06-04T10:04:36;21.40;96.40
75113;DHT22;63692;47.338;8.520;2023-06-04T10:07:05;21.40;95.90
75113;DHT22;63692;47.338;8.520;2023-06-04T10:09:32;21.50;95.80
75113;DHT22;63692;47.338;8.520;2023-06-04T10:11:59;21.50;95.50
75113;DHT22;63692;47.338;8.520;2023-06-04T10:14:37;21.50;95.60
75113;DHT22;63692;47.338;8.520;2023-06-04T10:17:05;21.50;95.30
75113;DHT22;63692;47.338;8.520;2023-06-04T10:19:32;21.50;95.40
75113;DHT22;63692;47.338;8.520;2023-06-04T10:21:59;21.50;95.60
75113;DHT22;63692;47.338;8.520;2023-06-04T10:24:25;21.50;95.90
75113;DHT22;63692;47.338;8.520;2023-06-04T10:26:54;21.50;95.50
75113;DHT22;63692;47.338;8.520;2023-06-04T10:29:21;21.60;95.40
75113;DHT22;63692;47.338;8.520;2023-06-04T10:31:52;21.60;95.20
75113;DHT22;63692;47.338;8.520;2023-06-04T10:34:18;21.70;95.30
75113;DHT22;63692;47.338;8.520;2023-06-04T10:36:44;21.70;95.10
75113;DHT22;63692;47.338;8.520;2023-06-04T10:39:11;21.70;94.80
75113;DHT22;63692;47.338;8.520;2023-06-04T10:41:37;21.70;94.40
75113;DHT22;63692;47.338;8.520;2023-06-04T10:44:03;21.70;94.50
75113;DHT22;63692;47.338;8.520;2023-06-04T10:46:39;21.70;95.20
75113;DHT22;63692;47.338;8.520;2023-06-04T10:49:11;21.70;94.30
75113;DHT22;63692;47.338;8.520;2023-06-04T10:51:37;21.70;94.50
75113;DHT22;63692;47.338;8.520;2023-06-04T10:54:03;21.70;93.70
75113;DHT22;63692;47.338;8.520;2023-06-04T10:56:32;21.70;94.10
75113;DHT22;63692;47.338;8.520;2023-06-04T10:58:59;21.70;94.40
75113;DHT22;63692;47.338;8.520;2023-06-04T11:01:27;21.60;93.30
75113;DHT22;63692;47.338;8.520;2023-06-04T11:03:54;21.60;93.90
75113;DHT22;63692;47.338;8.520;2023-06-04T11:06:21;21.60;94.30
75113;DHT22;63692;47.338;8.520;2023-06-04T11:08:47;21.50;93.80
75113;DHT22;63692;47.338;8.520;2023-06-04T11:11:15;21.60;93.80
75113;DHT22;63692;47.338;8.520;2023-06-04T11:13:41;21.60;93.40
75113;DHT22;63692;47.338;8.520;2023-06-04T11:16:21;21.70;93.80
75113;DHT22;63692;47.338;8.520;2023-06-04T11:18:57;21.70;93.90
75113;DHT22;63692;47.338;8.520;2023-06-04T11:21:24;21.80;94.00
75113;DHT22;63692;47.338;8.520;2023-06-04T11:23:57;21.80;93.90
75113;DHT22;63692;47.338;8.520;2023-06-04T11:26:28;21.80;94.10
75113;DHT22;63692;47.338;8.520;2023-06-04T11:28:54;21.90;94.10
75113;DHT22;63692;47.338;8.520;2023-06-04T11:31:20;21.90;94.00
75113;DHT22;63692;47.338;8.520;2023-06-04T11:33:47;22.00;93.40
75113;DHT22;63692;47.338;8.520;2023-06-04T11:36:27;22.00;93.30
75113;DHT22;63692;47.338;8.520;2023-06-04T11:39:00;22.10;93.20
75113;DHT22;63692;47.338;8.520;2023-06-04T11:41:30;22.20;93.40
75113;DHT22;63692;47.338;8.520;2023-06-04T11:43:57;22.20;92.90
75113;DHT22;63692;47.338;8.520;2023-06-04T11:46:23;22.20;92.80
75113;DHT22;63692;47.338;8.520;2023-06-04T11:48:52;22.20;91.80
75113;DHT22;63692;47.338;8.520;2023-06-04T11:51:22;22.30;88.60
75113;DHT22;63692;47.338;8.520;2023-06-04T11:53:48;22.30;87.20
75113;DHT22;63692;47.338;8.520;2023-06-04T11:56:15;22.30;88.40
75113;DHT22;63692;47.338;8.520;2023-06-04T11:58:40;22.30;86.00
75113;DHT22;63692;47.338;8.520;2023-06-04T12:01:07;22.30;85.90
75113;DHT22;63692;47.338;8.520;2023-06-04T12:03:38;22.30;81.60
75113;DHT22;63692;47.338;8.520;2023-06-04T12:06:19;22.30;85.90
75113;DHT22;63692;47.338;8.520;2023-06-04T12:08:46;22.30;80.70
75113;DHT22;63692;47.338;8.520;2023-06-04T12:11:42;22.40;80.30
75113;DHT22;63692;47.338;8.520;2023-06-04T12:14:07;22.40;77.10
75113;DHT22;63692;47.338;8.520;2023-06-04T12:16:40;22.50;77.80
75113;DHT22;63692;47.338;8.520;2023-06-04T12:19:13;22.50;76.40
75113;DHT22;63692;47.338;8.520;2023-06-04T12:21:39;22.70;74.70
75113;DHT22;63692;47.338;8.520;2023-06-04T12:24:11;22.80;77.90
75113;DHT22;63692;47.338;8.520;2023-06-04T12:26:39;23.00;78.60
75113;DHT22;63692;47.338;8.520;2023-06-04T12:29:13;23.10;75.70
75113;DHT22;63692;47.338;8.520;2023-06-04T12:31:42;23.10;76.70
75113;DHT22;63692;47.338;8.520;2023-06-04T12:34:09;23.10;77.00
75113;DHT22;63692;47.338;8.520;2023-06-04T12:36:36;23.10;77.70
75113;DHT22;63692;47.338;8.520;2023-06-04T12:39:03;23.10;77.00
75113;DHT22;63692;47.338;8.520;2023-06-04T12:41:29;23.10;75.60
75113;DHT22;63692;47.338;8.520;2023-06-04T12:43:55;23.20;74.90
75113;DHT22;63692;47.338;8.520;2023-06-04T12:46:24;23.20;74.40
75113;DHT22;63692;47.338;8.520;2023-06-04T12:48:51;23.30;74.70
75113;DHT22;63692;47.338;8.520;2023-06-04T12:51:17;23.40;74.30
75113;DHT22;63692;47.338;8.520;2023-06-04T12:53:43;23.40;74.90
75113;DHT22;63692;47.338;8.520;2023-06-04T12:56:10;23.40;75.60
75113;DHT22;63692;47.338;8.520;2023-06-04T12:58:36;23.60;72.30
75113;DHT22;63692;47.338;8.520;2023-06-04T13:01:02;23.70;75.40
75113;DHT22;63692;47.338;8.520;2023-06-04T13:03:30;23.70;73.90
75113;DHT22;63692;47.338;8.520;2023-06-04T13:05:56;23.60;76.00
75113;DHT22;63692;47.338;8.520;2023-06-04T13:08:22;23.60;74.70
75113;DHT22;63692;47.338;8.520;2023-06-04T13:10:49;23.60;71.30
75113;DHT22;63692;47.338;8.520;2023-06-04T13:13:15;23.60;72.70
75113;DHT22;63692;47.338;8.520;2023-06-04T13:15:42;23.70;68.30
75113;DHT22;63692;47.338;8.520;2023-06-04T13:18:08;23.80;71.90
75113;DHT22;63692;47.338;8.520;2023-06-04T13:20:35;23.90;72.40
75113;DHT22;63692;47.338;8.520;2023-06-04T13:23:00;24.00;74.20
75113;DHT22;63692;47.338;8.520;2023-06-04T13:25:26;24.00;70.70
75113;DHT22;63692;47.338;8.520;2023-06-04T13:27:54;24.00;72.60
75113;DHT22;63692;47.338;8.520;2023-06-04T13:30:20;24.10;63.80
75113;DHT22;63692;47.338;8.520;2023-06-04T13:32:46;24.20;64.70
75113;DHT22;63692;47.338;8.520;2023-06-04T13:35:11;24.30;67.80
75113;DHT22;63692;47.338;8.520;2023-06-04T13:37:37;24.20;70.30
75113;DHT22;63692;47.338;8.520;2023-06-04T13:40:03;24.20;69.80
75113;DHT22;63692;47.338;8.520;2023-06-04T13:42:29;24.20;70.80
75113;DHT22;63692;47.338;8.520;2023-06-04T13:44:55;24.20;68.80
75113;DHT22;63692;47.338;8.520;2023-06-04T13:47:20;24.40;69.20
75113;DHT22;63692;47.338;8.520;2023-06-04T13:49:47;24.30;67.30
75113;DHT22;63692;47.338;8.520;2023-06-04T13:52:13;24.30;69.60
75113;DHT22;63692;47.338;8.520;2023-06-04T13:54:38;24.20;68.00
75113;DHT22;63692;47.338;8.520;2023-06-04T13:57:04;24.10;69.50
75113;DHT22;63692;47.338;8.520;2023-06-04T13:59:32;24.10;67.50
75113;DHT22;63692;47.338;8.520;2023-06-04T14:01:58;24.10;68.30
75113;DHT22;63692;47.338;8.520;2023-06-04T14:04:23;24.20;66.30
75113;DHT22;63692;47.338;8.520;2023-06-04T14:06:49;24.30;68.60
75113;DHT22;63692;47.338;8.520;2023-06-04T14:09:15;24.20;68.70
75113;DHT22;63692;47.338;8.520;2023-06-04T14:11:41;24.20;68.80
75113;DHT22;63692;47.338;8.520;2023-06-04T14:14:07;24.20;69.10
75113;DHT22;63692;47.338;8.520;2023-06-04T14:16:32;24.30;70.10
75113;DHT22;63692;47.338;8.520;2023-06-04T14:18:59;24.30;69.30
75113;DHT22;63692;47.338;8.520;2023-06-04T14:21:26;24.40;70.10
75113;DHT22;63692;47.338;8.520;2023-06-04T14:23:52;24.40;68.80
75113;DHT22;63692;47.338;8.520;2023-06-04T14:26:18;24.40;69.30
75113;DHT22;63692;47.338;8.520;2023-06-04T14:28:44;24.40;68.60
75113;DHT22;63692;47.338;8.520;2023-06-04T14:33:51;24.30;67.30
75113;DHT22;63692;47.338;8.520;2023-06-04T14:36:16;24.20;68.40
75113;DHT22;63692;47.338;8.520;2023-06-04T14:38:42;24.20;67.10
75113;DHT22;63692;47.338;8.520;2023-06-04T14:41:09;24.30;65.10
75113;DHT22;63692;47.338;8.520;2023-06-04T14:43:34;24.30;64.80
75113;DHT22;63692;47.338;8.520;2023-06-04T14:46:00;24.40;66.20
75113;DHT22;63692;47.338;8.520;2023-06-04T14:48:25;24.30;66.90
75113;DHT22;63692;47.338;8.520;2023-06-04T14:50:51;24.30;65.20
75113;DHT22;63692;47.338;8.520;2023-06-04T14:53:21;24.30;64.50
75113;DHT22;63692;47.338;8.520;2023-06-04T14:55:47;24.30;65.60
75113;DHT22;63692;47.338;8.520;2023-06-04T14:58:13;24.30;64.20
75113;DHT22;63692;47.338;8.520;2023-06-04T15:00:39;24.40;63.90
75113;DHT22;63692;47.338;8.520;2023-06-04T15:03:05;24.30;63.20
75113;DHT22;63692;47.338;8.520;2023-06-04T15:05:31;24.40;62.00
75113;DHT22;63692;47.338;8.520;2023-06-04T15:07:57;24.40;61.80
75113;DHT22;63692;47.338;8.520;2023-06-04T15:10:24;24.40;61.60
75113;DHT22;63692;47.338;8.520;2023-06-04T15:12:51;24.40;61.90
75113;DHT22;63692;47.338;8.520;2023-06-04T15:15:17;24.40;62.90
75113;DHT22;63692;47.338;8.520;2023-06-04T15:17:43;24.50;63.40
75113;DHT22;63692;47.338;8.520;2023-06-04T15:20:08;24.60;62.30
75113;DHT22;63692;47.338;8.520;2023-06-04T15:22:34;24.60;64.40
75113;DHT22;63692;47.338;8.520;2023-06-04T15:25:00;24.60;62.00
75113;DHT22;63692;47.338;8.520;2023-06-04T15:27:25;24.60;63.60
75113;DHT22;63692;47.338;8.520;2023-06-04T15:29:51;24.60;60.80
75113;DHT22;63692;47.338;8.520;2023-06-04T15:32:17;24.60;59.40
75113;DHT22;63692;47.338;8.520;2023-06-04T15:34:43;24.60;60.10
75113;DHT22;63692;47.338;8.520;2023-06-04T15:37:09;24.60;62.00
75113;DHT22;63692;47.338;8.520;2023-06-04T15:39:34;24.60;61.10
75113;DHT22;63692;47.338;8.520;2023-06-04T15:42:00;24.70;61.70
75113;DHT22;63692;47.338;8.520;2023-06-04T15:44:26;24.80;63.20
75113;DHT22;63692;47.338;8.520;2023-06-04T15:46:52;24.80;62.90
75113;DHT22;63692;47.338;8.520;2023-06-04T15:49:18;24.80;59.30
75113;DHT22;63692;47.338;8.520;2023-06-04T15:51:43;24.80;60.10
75113;DHT22;63692;47.338;8.520;2023-06-04T15:54:09;24.80;62.10
75113;DHT22;63692;47.338;8.520;2023-06-04T15:56:35;24.90;62.30
75113;DHT22;63692;47.338;8.520;2023-06-04T15:59:01;24.90;63.80
75113;DHT22;63692;47.338;8.520;2023-06-04T16:01:28;24.90;62.80
75113;DHT22;63692;47.338;8.520;2023-06-04T16:03:54;24.90;63.40
75113;DHT22;63692;47.338;8.520;2023-06-04T16:06:20;24.80;61.40
75113;DHT22;63692;47.338;8.520;2023-06-04T16:08:46;24.80;59.20
75113;DHT22;63692;47.338;8.520;2023-06-04T16:11:11;24.90;62.50
75113;DHT22;63692;47.338;8.520;2023-06-04T16:13:37;27.20;59.90
75113;DHT22;63692;47.338;8.520;2023-06-04T16:16:02;28.20;55.30
75113;DHT22;63692;47.338;8.520;2023-06-04T16:18:28;29.80;55.40
75113;DHT22;63692;47.338;8.520;2023-06-04T16:20:54;29.80;51.90
75113;DHT22;63692;47.338;8.520;2023-06-04T16:23:20;30.00;51.40
75113;DHT22;63692;47.338;8.520;2023-06-04T16:25:46;30.30;53.30
75113;DHT22;63692;47.338;8.520;2023-06-04T16:28:12;30.50;53.40
75113;DHT22;63692;47.338;8.520;2023-06-04T16:30:38;29.70;51.10
75113;DHT22;63692;47.338;8.520;2023-06-04T16:33:04;28.90;51.80
75113;DHT22;63692;47.338;8.520;2023-06-04T16:35:30;28.30;49.60
75113;DHT22;63692;47.338;8.520;2023-06-04T16:37:57;27.70;49.50
75113;DHT22;63692;47.338;8.520;2023-06-04T16:40:23;27.20;52.90
75113;DHT22;63692;47.338;8.520;2023-06-04T16:42:48;26.90;54.50
75113;DHT22;63692;47.338;8.520;2023-06-04T16:45:14;26.50;57.30
75113;DHT22;63692;47.338;8.520;2023-06-04T16:47:40;26.30;54.60
75113;DHT22;63692;47.338;8.520;2023-06-04T16:50:08;26.20;55.30
75113;DHT22;63692;47.338;8.520;2023-06-04T16:52:33;26.00;56.40
75113;DHT22;63692;47.338;8.520;2023-06-04T16:54:59;25.80;55.90
75113;DHT22;63692;47.338;8.520;2023-06-04T16:57:25;25.80;56.70
75113;DHT22;63692;47.338;8.520;2023-06-04T16:59:50;25.70;55.80
75113;DHT22;63692;47.338;8.520;2023-06-04T17:02:16;25.60;54.60
75113;DHT22;63692;47.338;8.520;2023-06-04T17:04:42;25.40;54.60
75113;DHT22;63692;47.338;8.520;2023-06-04T17:07:08;25.30;55.30
75113;DHT22;63692;47.338;8.520;2023-06-04T17:09:33;25.10;64.50
75113;DHT22;63692;47.338;8.520;2023-06-04T17:12:00;24.90;66.10
75113;DHT22;63692;47.338;8.520;2023-06-04T17:14:25;24.80;63.20
75113;DHT22;63692;47.338;8.520;2023-06-04T17:16:51;24.80;64.40
75113;DHT22;63692;47.338;8.520;2023-06-04T17:19:17;24.70;60.20
75113;DHT22;63692;47.338;8.520;2023-06-04T17:21:44;24.60;67.10
75113;DHT22;63692;47.338;8.520;2023-06-04T17:24:10;24.60;67.30
75113;DHT22;63692;47.338;8.520;2023-06-04T17:26:36;24.50;63.10
75113;DHT22;63692;47.338;8.520;2023-06-04T17:29:02;24.40;66.60
75113;DHT22;63692;47.338;8.520;2023-06-04T17:31:28;24.40;61.70
75113;DHT22;63692;47.338;8.520;2023-06-04T17:33:54;24.30;64.80
75113;DHT22;63692;47.338;8.520;2023-06-04T17:36:20;24.30;65.00
75113;DHT22;63692;47.338;8.520;2023-06-04T17:41:14;24.10;68.60
75113;DHT22;63692;47.338;8.520;2023-06-04T17:43:40;24.00;67.90
75113;DHT22;63692;47.338;8.520;2023-06-04T17:46:06;23.90;70.00
75113;DHT22;63692;47.338;8.520;2023-06-04T17:48:31;23.90;63.30
75113;DHT22;63692;47.338;8.520;2023-06-04T17:50:57;23.80;64.60
75113;DHT22;63692;47.338;8.520;2023-06-04T17:53:22;23.80;71.40
75113;DHT22;63692;47.338;8.520;2023-06-04T17:55:49;23.70;72.50
75113;DHT22;63692;47.338;8.520;2023-06-04T17:58:15;23.60;66.70
75113;DHT22;63692;47.338;8.520;2023-06-04T18:00:47;23.60;69.20
75113;DHT22;63692;47.338;8.520;2023-06-04T18:03:13;23.50;67.70
75113;DHT22;63692;47.338;8.520;2023-06-04T18:05:38;23.40;67.00
75113;DHT22;63692;47.338;8.520;2023-06-04T18:08:09;23.30;69.40
75113;DHT22;63692;47.338;8.520;2023-06-04T18:10:35;23.30;66.20
75113;DHT22;63692;47.338;8.520;2023-06-04T18:13:01;23.30;62.60
75113;DHT22;63692;47.338;8.520;2023-06-04T18:15:27;23.10;77.00
75113;DHT22;63692;47.338;8.520;2023-06-04T18:17:54;23.10;74.50
75113;DHT22;63692;47.338;8.520;2023-06-04T18:20:21;22.90;71.50
75113;DHT22;63692;47.338;8.520;2023-06-04T18:22:47;22.80;71.90
75113;DHT22;63692;47.338;8.520;2023-06-04T18:25:13;22.80;74.40
75113;DHT22;63692;47.338;8.520;2023-06-04T18:27:38;22.70;80.20
75113;DHT22;63692;47.338;8.520;2023-06-04T18:30:04;22.60;80.30
75113;DHT22;63692;47.338;8.520;2023-06-04T18:32:30;22.60;79.80
75113;DHT22;63692;47.338;8.520;2023-06-04T18:34:56;22.50;81.50
75113;DHT22;63692;47.338;8.520;2023-06-04T18:37:22;22.50;73.60
75113;DHT22;63692;47.338;8.520;2023-06-04T18:39:48;22.40;69.40
75113;DHT22;63692;47.338;8.520;2023-06-04T18:42:13;22.50;75.90
75113;DHT22;63692;47.338;8.520;2023-06-04T18:44:39;22.40;81.30
75113;DHT22;63692;47.338;8.520;2023-06-04T18:49:32;22.30;71.70
75113;DHT22;63692;47.338;8.520;2023-06-04T18:51:58;22.30;79.30
75113;DHT22;63692;47.338;8.520;2023-06-04T18:54:24;22.20;80.70
75113;DHT22;63692;47.338;8.520;2023-06-04T18:56:50;22.20;79.50
75113;DHT22;63692;47.338;8.520;2023-06-04T18:59:16;22.20;77.90
75113;DHT22;63692;47.338;8.520;2023-06-04T19:01:43;22.10;80.20
75113;DHT22;63692;47.338;8.520;2023-06-04T19:04:09;22.10;80.50
75113;DHT22;63692;47.338;8.520;2023-06-04T19:06:35;22.10;79.00
75113;DHT22;63692;47.338;8.520;2023-06-04T19:09:01;22.00;79.50
75113;DHT22;63692;47.338;8.520;2023-06-04T19:11:28;21.90;79.70
75113;DHT22;63692;47.338;8.520;2023-06-04T19:13:54;21.90;80.00
75113;DHT22;63692;47.338;8.520;2023-06-04T19:16:20;21.70;78.20
75113;DHT22;63692;47.338;8.520;2023-06-04T19:18:46;21.70;83.40
75113;DHT22;63692;47.338;8.520;2023-06-04T19:21:15;21.50;85.90
75113;DHT22;63692;47.338;8.520;2023-06-04T19:23:42;21.40;85.00
75113;DHT22;63692;47.338;8.520;2023-06-04T19:26:08;21.40;81.20
75113;DHT22;63692;47.338;8.520;2023-06-04T19:28:34;21.30;80.00
75113;DHT22;63692;47.338;8.520;2023-06-04T19:30:59;21.30;86.10
75113;DHT22;63692;47.338;8.520;2023-06-04T19:33:25;21.20;85.40
75113;DHT22;63692;47.338;8.520;2023-06-04T19:35:51;21.10;82.80
75113;DHT22;63692;47.338;8.520;2023-06-04T19:38:17;21.00;85.70
75113;DHT22;63692;47.338;8.520;2023-06-04T19:43:13;20.90;88.20
75113;DHT22;63692;47.338;8.520;2023-06-04T19:45:40;20.80;86.10
75113;DHT22;63692;47.338;8.520;2023-06-04T19:48:05;20.70;88.30
75113;DHT22;63692;47.338;8.520;2023-06-04T19:50:31;20.60;90.20
75113;DHT22;63692;47.338;8.520;2023-06-04T19:52:56;20.60;90.50
75113;DHT22;63692;47.338;8.520;2023-06-04T19:55:22;20.50;90.40
75113;DHT22;63692;47.338;8.520;2023-06-04T19:57:48;20.50;88.40
75113;DHT22;63692;47.338;8.520;2023-06-04T20:00:14;20.40;90.40
75113;DHT22;63692;47.338;8.520;2023-06-04T20:02:40;20.40;89.80
75113;DHT22;63692;47.338;8.520;2023-06-04T20:05:06;20.30;90.30
75113;DHT22;63692;47.338;8.520;2023-06-04T20:07:32;20.20;89.40
75113;DHT22;63692;47.338;8.520;2023-06-04T20:10:00;20.20;90.10
75113;DHT22;63692;47.338;8.520;2023-06-04T20:12:28;20.20;89.10
75113;DHT22;63692;47.338;8.520;2023-06-04T20:14:54;20.10;90.90
75113;DHT22;63692;47.338;8.520;2023-06-04T20:17:20;20.10;91.70
75113;DHT22;63692;47.338;8.520;2023-06-04T20:19:45;20.00;91.40
75113;DHT22;63692;47.338;8.520;2023-06-04T20:22:11;20.00;91.40
75113;DHT22;63692;47.338;8.520;2023-06-04T20:24:40;19.90;90.80
75113;DHT22;63692;47.338;8.520;2023-06-04T20:27:07;19.80;90.70
75113;DHT22;63692;47.338;8.520;2023-06-04T20:29:32;19.80;91.40
